Suula — OJKZ — position and weather

sailwx.info

Track history (hours):
 
Tides and Currents Weather Stations Pressure Air Temp Water Temp Dewpoint Dewpoint Depression Visibility Wind Speed Wind Dir Waves Ship Positions

Suula

Last reported at 2016-May-28 10:15 UTC. Time now 2016-May-29 07:47 UTC.
Position N 60°03' E 025°35'.

Length 140 m; draft 6.5 m.

Type: Tanker. MMSI: 230956996.

Date/timePositionNaut miles runAvg speedWind from/ knotsBaromVisibWave heightAir tempDewpointWater temp
2016-May-28 10:15N 60°03' E 025°35'4912.3
2016-May-28 06:15N 59°41' E 024°08'1014.4
2016-May-28 05:33N 59°38' E 023°48'1414.2
2016-May-28 04:33N 59°34' E 023°22'2914.3
2016-May-28 02:33N 59°24' E 022°29'1813.5
2016-May-28 01:13N 59°29' E 021°55'913.7
2016-May-28 00:34N 59°32' E 021°38'1413.6
2016-May-27 23:33N 59°42' E 021°20'1212.3
2016-May-27 22:33N 59°53' E 021°32'4 0.1
2016-May-26 13:10N 59°56' E 021°38'914.6
2016-May-26 12:33N 59°51' E 021°24'1212.5
2016-May-26 11:34N 59°38' E 021°27'1313.1
2016-May-26 10:32N 59°32' E 021°51'4314.2
2016-May-26 07:32N 59°39' E 023°14'1313.9
2016-May-26 06:33N 59°42' E 023°40'1413.8
2016-May-26 05:32N 59°46' E 024°07'54 7.5
2016-May-25 22:15N 60°19' E 025°33'12 0.6
2016-May-25 02:31N 60°07' E 025°35'5413.3
2016-May-24 22:29N 59°41' E 024°01'1414.2
2016-May-24 21:32N 59°36' E 023°36'1514.4
2016-May-24 20:30N 59°31' E 023°08'1914.2
2016-May-24 19:08N 59°25' E 022°32'914.2
2016-May-24 18:31N 59°22' E 022°15'1914.5
2016-May-24 17:12N 59°20' E 021°38'1114.7
2016-May-24 16:26N 59°20' E 021°16'9411.7
2016-May-24 08:25N 59°20' E 018°12'1 0.6
2016-May-24 06:06N 59°19' E 018°10'0 0.0
2016-May-24 05:29N 59°19' E 018°10'0 0.0
2016-May-24 04:26N 59°19' E 018°10'0 0.0
2016-May-24 03:29N 59°19' E 018°10'0 0.0
2016-May-24 02:32N 59°19' E 018°10'0 0.0
2016-May-24 01:32N 59°19' E 018°10'0 0.0
2016-May-24 00:32N 59°19' E 018°10'0 0.0
2016-May-23 23:32N 59°19' E 018°10'0 0.0
2016-May-23 22:32N 59°19' E 018°10'0 0.0
2016-May-23 21:32N 59°19' E 018°10'0 0.0
2016-May-23 20:32N 59°19' E 018°10'0 0.0
2016-May-23 19:29N 59°19' E 018°10'0 0.0
2016-May-23 18:29N 59°19' E 018°10'0 0.0
2016-May-23 17:23N 59°19' E 018°10'0 0.0
2016-May-23 16:23N 59°19' E 018°10'0 0.0
2016-May-23 15:29N 59°19' E 018°10'0 0.0
2016-May-23 14:29N 59°19' E 018°10'0 0.0
2016-May-23 13:17N 59°19' E 018°10'0 0.0
2016-May-23 12:23N 59°19' E 018°10'0 0.0
2016-May-23 11:29N 59°19' E 018°10'0 0.0
2016-May-23 10:29N 59°19' E 018°10'0 0.0
2016-May-23 09:32N 59°19' E 018°10'0 0.0
2016-May-23 08:32N 59°19' E 018°10'0 0.0
2016-May-23 07:32N 59°19' E 018°10'0 0.0
2016-May-23 06:32N 59°19' E 018°10'0 0.0
2016-May-23 05:32N 59°19' E 018°10'0 0.0
2016-May-23 04:32N 59°19' E 018°10'0 0.1
2016-May-23 03:33N 59°19' E 018°10'15 6.7
2016-May-23 01:17N 59°23' E 018°40'21912.4
2016-May-22 07:31N 55°43' E 018°57'1313.3
2016-May-22 06:32N 55°30' E 018°59'1515.2
2016-May-22 05:33N 55°16' E 019°01'1313.3
2016-May-22 04:33N 55°02' E 019°02'1313.3
2016-May-22 03:33N 54°49' E 019°04'1313.1
2016-May-22 02:33N 54°36' E 019°07'1212.5
2016-May-22 01:33N 54°26' E 018°55'7 7.1
2016-May-22 00:33N 54°24' E 018°43'0 0.0
2016-May-21 23:31N 54°24' E 018°43'0 0.0
2016-May-21 22:31N 54°24' E 018°43'0 0.0
2016-May-21 21:31N 54°24' E 018°43'0 0.0
2016-May-21 20:31N 54°24' E 018°43'0 0.0
2016-May-21 19:34N 54°24' E 018°43'0 0.0
2016-May-21 18:34N 54°24' E 018°43'0 0.0
2016-May-21 17:33N 54°24' E 018°43'0 0.0
2016-May-21 16:33N 54°24' E 018°43'0 0.0
2016-May-21 15:33N 54°24' E 018°43'0 0.0
2016-May-21 14:33N 54°24' E 018°43'0 0.0
2016-May-21 13:33N 54°24' E 018°43'0 0.0
2016-May-21 12:33N 54°24' E 018°43'0 0.0
2016-May-21 11:33N 54°24' E 018°43'0 0.0
2016-May-21 10:33N 54°24' E 018°43'0 0.0
2016-May-21 09:33N 54°24' E 018°43'0 0.0
2016-May-21 08:33N 54°24' E 018°43'0 0.0
2016-May-21 07:33N 54°24' E 018°43'0 0.0
2016-May-21 06:33N 54°24' E 018°43'0 0.0
2016-May-21 05:33N 54°24' E 018°43'0 0.0
2016-May-21 04:33N 54°24' E 018°43'0 0.0
2016-May-21 03:33N 54°24' E 018°43'0 0.0
2016-May-21 02:33N 54°24' E 018°43'0 0.0
2016-May-21 01:33N 54°24' E 018°43'0 0.0
2016-May-21 00:33N 54°24' E 018°43'0 0.0
2016-May-20 23:33N 54°24' E 018°43'0 0.0
2016-May-20 22:33N 54°24' E 018°43'0 0.0
2016-May-20 21:33N 54°24' E 018°43'0 0.0
2016-May-20 20:33N 54°24' E 018°43'3 3.3
2016-May-20 19:33N 54°25' E 018°49'1313.4
2016-May-20 18:33N 54°35' E 019°04'1211.7
2016-May-20 17:33N 54°46' E 018°57'1312.6
2016-May-20 16:33N 54°54' E 018°40'1212.0
2016-May-20 15:33N 54°59' E 018°21'1312.7
2016-May-20 14:33N 54°57' E 017°59'1312.5
2016-May-20 13:31N 54°55' E 017°37'5313.5
2016-May-20 09:32N 54°45' E 016°06'1514.5
2016-May-20 08:31N 54°43' E 015°40'1212.3
2016-May-20 07:33N 54°40' E 015°20'1312.7
2016-May-20 06:33N 54°39' E 014°58'1313.2
2016-May-20 05:33N 54°36' E 014°36'1312.9
2016-May-20 04:33N 54°37' E 014°14'1312.8
2016-May-20 03:33N 54°44' E 013°55'1313.2
2016-May-20 02:33N 54°53' E 013°38'1313.3
2016-May-20 01:34N 55°01' E 013°20'1312.7
2016-May-20 00:33N 55°09' E 013°02'1313.1
2016-May-19 23:33N 55°11' E 012°40'1212.3
2016-May-19 22:33N 55°24' E 012°39'1211.9
2016-May-19 21:33N 55°36' E 012°42'1212.3
2016-May-19 20:33N 55°48' E 012°42'1313.2
2016-May-19 19:33N 56°01' E 012°40'1212.3
2016-May-19 18:33N 56°11' E 012°28'1413.5
2016-May-19 17:33N 56°25' E 012°29'1414.2
2016-May-19 16:33N 56°36' E 012°45'5 4.3
2016-May-19 15:28N 56°39' E 012°51'0 0.0
2016-May-19 14:16N 56°39' E 012°51'0 0.0
2016-May-19 13:28N 56°39' E 012°51'0 0.0
2016-May-19 12:28N 56°39' E 012°51'0 0.0
2016-May-19 11:28N 56°39' E 012°51'0 0.0
2016-May-19 10:28N 56°39' E 012°51'0 0.0
2016-May-19 09:28N 56°39' E 012°51'0 0.0
2016-May-19 08:33N 56°39' E 012°51'6 6.3
2016-May-19 07:33N 56°35' E 012°43'1313.0
2016-May-19 06:33N 56°25' E 012°28'1313.1
2016-May-19 05:33N 56°12' E 012°29'1414.1
2016-May-19 04:33N 55°60' E 012°41'1313.0
2016-May-19 03:33N 55°47' E 012°42'1312.7
2016-May-19 02:33N 55°34' E 012°42'1313.1
2016-May-19 01:33N 55°21' E 012°40'1212.1
2016-May-19 00:33N 55°15' E 012°59'1313.1
2016-May-18 23:33N 55°15' E 013°22'1312.7
2016-May-18 22:33N 55°14' E 013°44'1313.0
2016-May-18 21:33N 55°14' E 014°07'1211.8
2016-May-18 20:33N 55°20' E 014°24'1313.1
2016-May-18 19:33N 55°29' E 014°41'1313.1
2016-May-18 18:33N 55°37' E 014°59'1313.1
2016-May-18 17:33N 55°44' E 015°19'  
Track history (hours):
 
Tides and Currents Weather Stations Pressure Air Temp Water Temp Dewpoint Dewpoint Depression Visibility Wind Speed Wind Dir Waves Ship Positions

Suula

Last reported at 2016-May-28 10:15 UTC. Time now 2016-May-29 07:47 UTC.
Position N 60°03' E 025°35'.

Length 140 m; draft 6.5 m.

Type: Tanker. MMSI: 230956996.

Date/timePositionNaut miles runAvg speedWind from/ knotsBaromVisibWave heightAir tempDewpointWater temp
2016-May-28 10:15N 60°03' E 025°35'4912.3
2016-May-28 06:15N 59°41' E 024°08'1014.4
2016-May-28 05:33N 59°38' E 023°48'1414.2
2016-May-28 04:33N 59°34' E 023°22'2914.3
2016-May-28 02:33N 59°24' E 022°29'1813.5
2016-May-28 01:13N 59°29' E 021°55'913.7
2016-May-28 00:34N 59°32' E 021°38'1413.6
2016-May-27 23:33N 59°42' E 021°20'1212.3
2016-May-27 22:33N 59°53' E 021°32'4 0.1
2016-May-26 13:10N 59°56' E 021°38'914.6
2016-May-26 12:33N 59°51' E 021°24'1212.5
2016-May-26 11:34N 59°38' E 021°27'1313.1
2016-May-26 10:32N 59°32' E 021°51'4314.2
2016-May-26 07:32N 59°39' E 023°14'1313.9
2016-May-26 06:33N 59°42' E 023°40'1413.8
2016-May-26 05:32N 59°46' E 024°07'54 7.5
2016-May-25 22:15N 60°19' E 025°33'12 0.6
2016-May-25 02:31N 60°07' E 025°35'5413.3
2016-May-24 22:29N 59°41' E 024°01'1414.2
2016-May-24 21:32N 59°36' E 023°36'1514.4
2016-May-24 20:30N 59°31' E 023°08'1914.2
2016-May-24 19:08N 59°25' E 022°32'914.2
2016-May-24 18:31N 59°22' E 022°15'1914.5
2016-May-24 17:12N 59°20' E 021°38'1114.7
2016-May-24 16:26N 59°20' E 021°16'9411.7
2016-May-24 08:25N 59°20' E 018°12'1 0.6
2016-May-24 06:06N 59°19' E 018°10'0 0.0
2016-May-24 05:29N 59°19' E 018°10'0 0.0
2016-May-24 04:26N 59°19' E 018°10'0 0.0
2016-May-24 03:29N 59°19' E 018°10'0 0.0
2016-May-24 02:32N 59°19' E 018°10'0 0.0
2016-May-24 01:32N 59°19' E 018°10'0 0.0
2016-May-24 00:32N 59°19' E 018°10'0 0.0
2016-May-23 23:32N 59°19' E 018°10'0 0.0
2016-May-23 22:32N 59°19' E 018°10'0 0.0
2016-May-23 21:32N 59°19' E 018°10'0 0.0
2016-May-23 20:32N 59°19' E 018°10'0 0.0
2016-May-23 19:29N 59°19' E 018°10'0 0.0
2016-May-23 18:29N 59°19' E 018°10'0 0.0
2016-May-23 17:23N 59°19' E 018°10'0 0.0
2016-May-23 16:23N 59°19' E 018°10'0 0.0
2016-May-23 15:29N 59°19' E 018°10'0 0.0
2016-May-23 14:29N 59°19' E 018°10'0 0.0
2016-May-23 13:17N 59°19' E 018°10'0 0.0
2016-May-23 12:23N 59°19' E 018°10'0 0.0
2016-May-23 11:29N 59°19' E 018°10'0 0.0
2016-May-23 10:29N 59°19' E 018°10'0 0.0
2016-May-23 09:32N 59°19' E 018°10'0 0.0
2016-May-23 08:32N 59°19' E 018°10'0 0.0
2016-May-23 07:32N 59°19' E 018°10'0 0.0
2016-May-23 06:32N 59°19' E 018°10'0 0.0
2016-May-23 05:32N 59°19' E 018°10'0 0.0
2016-May-23 04:32N 59°19' E 018°10'0 0.1
2016-May-23 03:33N 59°19' E 018°10'15 6.7
2016-May-23 01:17N 59°23' E 018°40'21912.4
2016-May-22 07:31N 55°43' E 018°57'1313.3
2016-May-22 06:32N 55°30' E 018°59'1515.2
2016-May-22 05:33N 55°16' E 019°01'1313.3
2016-May-22 04:33N 55°02' E 019°02'1313.3
2016-May-22 03:33N 54°49' E 019°04'1313.1
2016-May-22 02:33N 54°36' E 019°07'1212.5
2016-May-22 01:33N 54°26' E 018°55'7 7.1
2016-May-22 00:33N 54°24' E 018°43'0 0.0
2016-May-21 23:31N 54°24' E 018°43'0 0.0
2016-May-21 22:31N 54°24' E 018°43'0 0.0
2016-May-21 21:31N 54°24' E 018°43'0 0.0
2016-May-21 20:31N 54°24' E 018°43'0 0.0
2016-May-21 19:34N 54°24' E 018°43'0 0.0
2016-May-21 18:34N 54°24' E 018°43'0 0.0
2016-May-21 17:33N 54°24' E 018°43'0 0.0
2016-May-21 16:33N 54°24' E 018°43'0 0.0
2016-May-21 15:33N 54°24' E 018°43'0 0.0
2016-May-21 14:33N 54°24' E 018°43'0 0.0
2016-May-21 13:33N 54°24' E 018°43'0 0.0
2016-May-21 12:33N 54°24' E 018°43'0 0.0
2016-May-21 11:33N 54°24' E 018°43'0 0.0
2016-May-21 10:33N 54°24' E 018°43'0 0.0
2016-May-21 09:33N 54°24' E 018°43'0 0.0
2016-May-21 08:33N 54°24' E 018°43'0 0.0
2016-May-21 07:33N 54°24' E 018°43'0 0.0
2016-May-21 06:33N 54°24' E 018°43'0 0.0
2016-May-21 05:33N 54°24' E 018°43'0 0.0
2016-May-21 04:33N 54°24' E 018°43'0 0.0
2016-May-21 03:33N 54°24' E 018°43'0 0.0
2016-May-21 02:33N 54°24' E 018°43'0 0.0
2016-May-21 01:33N 54°24' E 018°43'0 0.0
2016-May-21 00:33N 54°24' E 018°43'0 0.0
2016-May-20 23:33N 54°24' E 018°43'0 0.0
2016-May-20 22:33N 54°24' E 018°43'0 0.0
2016-May-20 21:33N 54°24' E 018°43'0 0.0
2016-May-20 20:33N 54°24' E 018°43'3 3.3
2016-May-20 19:33N 54°25' E 018°49'1313.4
2016-May-20 18:33N 54°35' E 019°04'1211.7
2016-May-20 17:33N 54°46' E 018°57'1312.6
2016-May-20 16:33N 54°54' E 018°40'1212.0
2016-May-20 15:33N 54°59' E 018°21'1312.7
2016-May-20 14:33N 54°57' E 017°59'1312.5
2016-May-20 13:31N 54°55' E 017°37'5313.5
2016-May-20 09:32N 54°45' E 016°06'1514.5
2016-May-20 08:31N 54°43' E 015°40'1212.3
2016-May-20 07:33N 54°40' E 015°20'1312.7
2016-May-20 06:33N 54°39' E 014°58'1313.2
2016-May-20 05:33N 54°36' E 014°36'1312.9
2016-May-20 04:33N 54°37' E 014°14'1312.8
2016-May-20 03:33N 54°44' E 013°55'1313.2
2016-May-20 02:33N 54°53' E 013°38'1313.3
2016-May-20 01:34N 55°01' E 013°20'1312.7
2016-May-20 00:33N 55°09' E 013°02'1313.1
2016-May-19 23:33N 55°11' E 012°40'1212.3
2016-May-19 22:33N 55°24' E 012°39'1211.9
2016-May-19 21:33N 55°36' E 012°42'1212.3
2016-May-19 20:33N 55°48' E 012°42'1313.2
2016-May-19 19:33N 56°01' E 012°40'1212.3
2016-May-19 18:33N 56°11' E 012°28'1413.5
2016-May-19 17:33N 56°25' E 012°29'1414.2
2016-May-19 16:33N 56°36' E 012°45'5 4.3
2016-May-19 15:28N 56°39' E 012°51'0 0.0
2016-May-19 14:16N 56°39' E 012°51'0 0.0
2016-May-19 13:28N 56°39' E 012°51'0 0.0
2016-May-19 12:28N 56°39' E 012°51'0 0.0
2016-May-19 11:28N 56°39' E 012°51'0 0.0
2016-May-19 10:28N 56°39' E 012°51'0 0.0
2016-May-19 09:28N 56°39' E 012°51'0 0.0
2016-May-19 08:33N 56°39' E 012°51'6 6.3
2016-May-19 07:33N 56°35' E 012°43'1313.0
2016-May-19 06:33N 56°25' E 012°28'1313.1
2016-May-19 05:33N 56°12' E 012°29'1414.1
2016-May-19 04:33N 55°60' E 012°41'1313.0
2016-May-19 03:33N 55°47' E 012°42'1312.7
2016-May-19 02:33N 55°34' E 012°42'1313.1
2016-May-19 01:33N 55°21' E 012°40'1212.1
2016-May-19 00:33N 55°15' E 012°59'1313.1
2016-May-18 23:33N 55°15' E 013°22'1312.7
2016-May-18 22:33N 55°14' E 013°44'1313.0
2016-May-18 21:33N 55°14' E 014°07'1211.8
2016-May-18 20:33N 55°20' E 014°24'1313.1
2016-May-18 19:33N 55°29' E 014°41'1313.1
2016-May-18 18:33N 55°37' E 014°59'1313.1
2016-May-18 17:33N 55°44' E 015°19'  

Dump ship's entire track history